Coral Mer — V2QO6 — position and weather

sailwx.info

Track history (hours):
 
Tides and Currents Weather Stations Pressure Air Temp Water Temp Dewpoint Dewpoint Depression Visibility Wind Speed Wind Dir Waves Ship Positions

Coral Mer

Last reported at 2018-Jun-21 19:02 UTC. Time now 2018-Jun-23 19:29 UTC.
Position N 43°00' E 005°05'.

Length 88 m; draft 3.2 m.

Type: Cargo ship. MMSI: 305972000.

Date/timePositionNaut miles runAvg speedWind from/ knotsBaromVisibWave heightAir tempDewpointWater temp
2018-Jun-21 19:02N 43°00' E 005°05'0 8.2
2018-Jun-21 19:00N 43°00' E 005°05'4 8.2
2018-Jun-21 18:30N 43°04' E 005°04'7 8.5
2018-Jun-21 17:44N 43°11' E 005°02'3 8.5
2018-Jun-21 17:26N 43°13' E 005°01'4 8.3
2018-Jun-21 16:58N 43°17' E 004°60'4 8.3
2018-Jun-21 16:30N 43°21' E 004°58'7 7.7
2018-Jun-21 15:39N 43°23' E 004°50'1 7.6
2018-Jun-21 15:30N 43°23' E 004°48'0 0.5
2018-Jun-21 15:01N 43°23' E 004°49'0 0.3
2018-Jun-21 14:30N 43°23' E 004°48'0 0.0
2018-Jun-21 14:00N 43°23' E 004°48'0 0.0
2018-Jun-21 13:29N 43°23' E 004°48'0 0.0
2018-Jun-21 13:00N 43°23' E 004°48'0 0.0
2018-Jun-21 12:16N 43°23' E 004°48'0 0.0
2018-Jun-21 12:00N 43°23' E 004°48'0 0.0
2018-Jun-21 11:30N 43°23' E 004°48'0 0.0
2018-Jun-21 11:00N 43°23' E 004°48'0 0.0
2018-Jun-21 10:30N 43°23' E 004°48'0 0.0
2018-Jun-21 10:01N 43°23' E 004°48'0 0.0
2018-Jun-21 09:30N 43°23' E 004°48'0 0.0
2018-Jun-21 09:00N 43°23' E 004°48'  
2018-Jun-13 17:15N 43°24' E 004°54'2 8.4
2018-Jun-13 17:00N 43°23' E 004°57'3 6.4
2018-Jun-13 16:30N 43°20' E 004°59'11 8.0
2018-Jun-13 15:06N 43°14' E 005°12'1 7.6
2018-Jun-13 14:59N 43°14' E 005°13'78 7.0
2018-Jun-13 03:44N 43°15' E 007°01'2 8.6
2018-Jun-13 03:28N 43°17' E 007°04'4 8.8
2018-Jun-13 03:00N 43°19' E 007°08'5 9.0
2018-Jun-13 02:30N 43°21' E 007°14'5 8.9
2018-Jun-13 01:59N 43°24' E 007°19'4 8.7
2018-Jun-13 01:30N 43°26' E 007°24'58 6.6
2018-Jun-12 16:40N 44°03' E 008°26'1 8.1
2018-Jun-12 16:29N 44°04' E 008°26'4 8.1
2018-Jun-12 16:00N 44°08' E 008°29'4 8.1
2018-Jun-12 15:30N 44°12' E 008°31'4 8.3
2018-Jun-12 15:00N 44°16' E 008°31'3 6.1
2018-Jun-12 14:29N 44°19' E 008°30'0 0.0
2018-Jun-12 13:59N 44°19' E 008°30'0 0.0
2018-Jun-12 13:23N 44°19' E 008°30'0 0.0
2018-Jun-12 12:59N 44°19' E 008°30'0 0.0
2018-Jun-12 12:29N 44°19' E 008°30'0 0.0
2018-Jun-12 11:59N 44°19' E 008°30'0 0.0
2018-Jun-12 11:29N 44°19' E 008°30'0 0.0
2018-Jun-12 10:59N 44°19' E 008°30'0 0.0
2018-Jun-12 10:29N 44°19' E 008°30'0 0.0
2018-Jun-12 09:59N 44°19' E 008°30'0 0.0
2018-Jun-12 09:29N 44°19' E 008°30'0 0.0
2018-Jun-12 08:59N 44°19' E 008°30'0 0.0
2018-Jun-12 08:29N 44°19' E 008°30'0 0.0
2018-Jun-12 07:59N 44°19' E 008°30'0 0.0
2018-Jun-12 07:29N 44°19' E 008°30'0 0.0
2018-Jun-12 06:59N 44°19' E 008°30'0 0.0
2018-Jun-12 06:29N 44°19' E 008°30'0 0.0
2018-Jun-12 05:59N 44°19' E 008°30'0 0.0
2018-Jun-12 05:29N 44°19' E 008°30'0 0.0
2018-Jun-12 04:59N 44°19' E 008°30'0 0.0
2018-Jun-12 04:30N 44°19' E 008°30'2 3.9
2018-Jun-12 04:00N 44°17' E 008°31'4 8.7
2018-Jun-12 03:30N 44°13' E 008°31'4 7.8
2018-Jun-12 03:00N 44°09' E 008°29'9 7.9
2018-Jun-12 01:54N 44°01' E 008°24'8 7.6
2018-Jun-12 00:53N 43°54' E 008°20'  
Track history (hours):
 
Tides and Currents Weather Stations Pressure Air Temp Water Temp Dewpoint Dewpoint Depression Visibility Wind Speed Wind Dir Waves Ship Positions

Coral Mer

Last reported at 2018-Jun-21 19:02 UTC. Time now 2018-Jun-23 19:29 UTC.
Position N 43°00' E 005°05'.

Length 88 m; draft 3.2 m.

Type: Cargo ship. MMSI: 305972000.

Date/timePositionNaut miles runAvg speedWind from/ knotsBaromVisibWave heightAir tempDewpointWater temp
2018-Jun-21 19:02N 43°00' E 005°05'0 8.2
2018-Jun-21 19:00N 43°00' E 005°05'4 8.2
2018-Jun-21 18:30N 43°04' E 005°04'7 8.5
2018-Jun-21 17:44N 43°11' E 005°02'3 8.5
2018-Jun-21 17:26N 43°13' E 005°01'4 8.3
2018-Jun-21 16:58N 43°17' E 004°60'4 8.3
2018-Jun-21 16:30N 43°21' E 004°58'7 7.7
2018-Jun-21 15:39N 43°23' E 004°50'1 7.6
2018-Jun-21 15:30N 43°23' E 004°48'0 0.5
2018-Jun-21 15:01N 43°23' E 004°49'0 0.3
2018-Jun-21 14:30N 43°23' E 004°48'0 0.0
2018-Jun-21 14:00N 43°23' E 004°48'0 0.0
2018-Jun-21 13:29N 43°23' E 004°48'0 0.0
2018-Jun-21 13:00N 43°23' E 004°48'0 0.0
2018-Jun-21 12:16N 43°23' E 004°48'0 0.0
2018-Jun-21 12:00N 43°23' E 004°48'0 0.0
2018-Jun-21 11:30N 43°23' E 004°48'0 0.0
2018-Jun-21 11:00N 43°23' E 004°48'0 0.0
2018-Jun-21 10:30N 43°23' E 004°48'0 0.0
2018-Jun-21 10:01N 43°23' E 004°48'0 0.0
2018-Jun-21 09:30N 43°23' E 004°48'0 0.0
2018-Jun-21 09:00N 43°23' E 004°48'  
2018-Jun-13 17:15N 43°24' E 004°54'2 8.4
2018-Jun-13 17:00N 43°23' E 004°57'3 6.4
2018-Jun-13 16:30N 43°20' E 004°59'11 8.0
2018-Jun-13 15:06N 43°14' E 005°12'1 7.6
2018-Jun-13 14:59N 43°14' E 005°13'78 7.0
2018-Jun-13 03:44N 43°15' E 007°01'2 8.6
2018-Jun-13 03:28N 43°17' E 007°04'4 8.8
2018-Jun-13 03:00N 43°19' E 007°08'5 9.0
2018-Jun-13 02:30N 43°21' E 007°14'5 8.9
2018-Jun-13 01:59N 43°24' E 007°19'4 8.7
2018-Jun-13 01:30N 43°26' E 007°24'58 6.6
2018-Jun-12 16:40N 44°03' E 008°26'1 8.1
2018-Jun-12 16:29N 44°04' E 008°26'4 8.1
2018-Jun-12 16:00N 44°08' E 008°29'4 8.1
2018-Jun-12 15:30N 44°12' E 008°31'4 8.3
2018-Jun-12 15:00N 44°16' E 008°31'3 6.1
2018-Jun-12 14:29N 44°19' E 008°30'0 0.0
2018-Jun-12 13:59N 44°19' E 008°30'0 0.0
2018-Jun-12 13:23N 44°19' E 008°30'0 0.0
2018-Jun-12 12:59N 44°19' E 008°30'0 0.0
2018-Jun-12 12:29N 44°19' E 008°30'0 0.0
2018-Jun-12 11:59N 44°19' E 008°30'0 0.0
2018-Jun-12 11:29N 44°19' E 008°30'0 0.0
2018-Jun-12 10:59N 44°19' E 008°30'0 0.0
2018-Jun-12 10:29N 44°19' E 008°30'0 0.0
2018-Jun-12 09:59N 44°19' E 008°30'0 0.0
2018-Jun-12 09:29N 44°19' E 008°30'0 0.0
2018-Jun-12 08:59N 44°19' E 008°30'0 0.0
2018-Jun-12 08:29N 44°19' E 008°30'0 0.0
2018-Jun-12 07:59N 44°19' E 008°30'0 0.0
2018-Jun-12 07:29N 44°19' E 008°30'0 0.0
2018-Jun-12 06:59N 44°19' E 008°30'0 0.0
2018-Jun-12 06:29N 44°19' E 008°30'0 0.0
2018-Jun-12 05:59N 44°19' E 008°30'0 0.0
2018-Jun-12 05:29N 44°19' E 008°30'0 0.0
2018-Jun-12 04:59N 44°19' E 008°30'0 0.0
2018-Jun-12 04:30N 44°19' E 008°30'2 3.9
2018-Jun-12 04:00N 44°17' E 008°31'4 8.7
2018-Jun-12 03:30N 44°13' E 008°31'4 7.8
2018-Jun-12 03:00N 44°09' E 008°29'9 7.9
2018-Jun-12 01:54N 44°01' E 008°24'8 7.6
2018-Jun-12 00:53N 43°54' E 008°20'  

Dump ship's entire track history